Details for Norwegian Air Shuttle at LEBL




Go Back


Latest METAR
Local Time

LEBL 250430Z 34006KT 9999 FEW022 FEW040CB 17/11 Q1015 NOSIG

25/05/2018, 06:49:46

Description
Results
Norwegian Air Shuttle Logo
Number of Pilots based at LEBL
0 Pilots Based here
Number of Norwegian Air Shuttle Flights Departed from LEBL
0 Flights Departed
Number of Norwegian Air Shuttle Flights Arrived at LEBL
0 Flights Arrived
Number of Norwegian Air Shuttle Schedules Departing from LEBL
13 Schedules
Number of Norwegian Air Shuttle Schedules Arriving at LEBL
12 Schedules
Number of Norwegian Air Shuttle Schedules Departing from LEBL availible today
6 Schedules Today
Number of Norwegian Air Shuttle Schedules Arriving at LEBL availible today
7 Schedules Today
Average Landing Rate at LEBL
-195 fpm
Norwegian Air Shuttle Average Landing Rate at LEBL
0 fpm
Total Fuel Purchased at LEBL by Norwegian Air Shuttle
0.00 kgs / 0.00 lbs

Pilots Based at LEBL


Pilot ID
Pilot Name
Pilot Rank
No. of Flights
No. of Flying Hours
There are no pilots assigned to this hub!   Will you be the first?
Content